createdAt,value
2017-08-29T22:33:04.778Z,1007.02
2017-08-29T22:34:04.776Z,1006.99
2017-08-29T22:35:57.721Z,1006.98
2017-08-29T22:36:57.696Z,1006.95
2017-08-29T22:38:50.640Z,1006.97
2017-08-29T22:39:50.619Z,1006.97
2017-08-29T22:41:43.573Z,1006.95
2017-08-29T22:42:43.573Z,1006.91
2017-08-29T22:44:37.208Z,1006.90
2017-08-29T22:45:36.503Z,1006.88
2017-08-29T22:47:29.430Z,1006.86
2017-08-29T22:48:29.424Z,1006.87
2017-08-29T22:50:22.644Z,1006.84
2017-08-29T22:51:22.381Z,1006.89
2017-08-29T22:53:15.790Z,1006.87
2017-08-29T22:54:15.793Z,1006.88
2017-08-29T22:56:08.744Z,1006.88
2017-08-29T22:57:08.741Z,1006.87
2017-08-29T22:59:01.707Z,1006.86
2017-08-29T23:00:01.674Z,1006.82
2017-08-29T23:01:54.602Z,1006.80
2017-08-29T23:02:54.590Z,1006.78
2017-08-29T23:04:48.041Z,1006.79
2017-08-29T23:05:48.035Z,1006.80
2017-08-29T23:07:41.235Z,1006.79
2017-08-29T23:08:40.955Z,1006.79
2017-08-29T23:10:33.899Z,1006.82
2017-08-29T23:11:33.900Z,1006.80
2017-08-29T23:13:26.818Z,1006.78
2017-08-29T23:14:26.838Z,1006.75
2017-08-29T23:16:19.752Z,1006.71
2017-08-29T23:17:19.771Z,1006.75
2017-08-29T23:19:12.979Z,1006.71
2017-08-29T23:20:12.695Z,1006.72
2017-08-29T23:22:06.121Z,1006.70
2017-08-29T23:23:06.142Z,1006.69
2017-08-29T23:24:59.333Z,1006.68
2017-08-29T23:25:59.072Z,1006.69
2017-08-29T23:27:52.014Z,1006.61
2017-08-29T23:28:51.987Z,1006.60
2017-08-29T23:30:44.941Z,1006.57
2017-08-29T23:31:45.209Z,1006.54
2017-08-29T23:33:38.088Z,1006.56
2017-08-29T23:34:37.876Z,1006.54
2017-08-29T23:36:31.299Z,1006.48
2017-08-29T23:37:31.297Z,1006.49
2017-08-29T23:39:24.212Z,1006.49
2017-08-29T23:40:24.235Z,1006.44
2017-08-29T23:42:17.700Z,1006.45
2017-08-29T23:43:17.664Z,1006.47
2017-08-29T23:45:11.088Z,1006.43
2017-08-29T23:46:11.104Z,1006.46
2017-08-29T23:48:04.553Z,1006.38
2017-08-29T23:49:04.586Z,1006.40
2017-08-29T23:50:58.007Z,1006.41
2017-08-29T23:51:57.979Z,1006.41
2017-08-29T23:53:51.446Z,1006.40
2017-08-29T23:54:51.466Z,1006.39
2017-08-29T23:56:44.392Z,1006.39
2017-08-29T23:57:44.412Z,1006.37
2017-08-29T23:59:37.342Z,1006.32
